METAR Data
IDs: Format: Raw Decoded Include TAF

Data at: 2003 UTC 23 Oct 2021

KTOB 231955Z AUTO 06006KT 10SM 11/M01 A3002 RMK AO2